Time;durP1;ratioP1;P1;durP2;ratioP2;P2;SDS_P1;SDS_P2;PMS_P1;PMS_P2;Temp;Humidity;BMP_temperature;BMP_pressure;BME280_temperature;BME280_humidity;BME280_pressure;Samples;Min_cycle;Max_cycle;Signal;HPM_P1;HPM_P2
2023/08/21 00:00:38;;;;;;;20.70;18.90;;;;;;;19.38;100.00;99347.98;137415;1276;22127;-86
2023/08/21 00:04:00;;;;;;;21.20;19.00;;;;;;;19.31;100.00;99342.98;137413;1276;22059;-86
2023/08/21 00:07:03;;;;;;;20.20;18.30;;;;;;;19.29;100.00;99352.19;137423;1276;22115;-86
2023/08/21 00:10:07;;;;;;;21.40;19.40;;;;;;;19.27;100.00;99355.75;137439;1276;22083;-87
2023/08/21 00:13:09;;;;;;;20.00;18.20;;;;;;;19.21;100.00;99349.67;137275;1276;188446;-85
2023/08/21 00:16:12;;;;;;;22.90;20.60;;;;;;;19.15;100.00;99355.95;137453;1276;22062;-86
2023/08/21 00:19:15;;;;;;;21.30;19.40;;;;;;;19.13;100.00;99354.73;137428;1276;22075;-85
2023/08/21 00:22:17;;;;;;;21.00;19.00;;;;;;;19.15;100.00;99351.17;137472;1276;22169;-85
2023/08/21 00:25:20;;;;;;;21.00;19.10;;;;;;;19.14;100.00;99351.19;137350;1276;22571;-86
2023/08/21 00:28:22;;;;;;;21.10;19.20;;;;;;;19.08;100.00;99353.02;137340;1276;22256;-85
2023/08/21 00:31:25;;;;;;;22.10;20.10;;;;;;;19.02;100.00;99347.27;137332;1276;22096;-85
2023/08/21 00:34:28;;;;;;;21.40;19.20;;;;;;;19.01;100.00;99349.57;137342;1276;22068;-86
2023/08/21 00:37:30;;;;;;;23.20;20.90;;;;;;;18.99;100.00;99346.96;137312;1276;22017;-86
2023/08/21 00:40:33;;;;;;;22.40;20.30;;;;;;;18.96;100.00;99347.17;137168;1276;22102;-83
2023/08/21 00:43:36;;;;;;;35.10;31.60;;;;;;;18.92;100.00;99345.82;137313;1276;22110;-84
2023/08/21 00:46:38;;;;;;;23.00;20.60;;;;;;;18.91;100.00;99343.02;137346;1276;22056;-84
2023/08/21 00:49:41;;;;;;;22.00;20.00;;;;;;;18.87;100.00;99338.83;137349;1276;22072;-86
2023/08/21 00:52:43;;;;;;;23.20;20.90;;;;;;;18.84;100.00;99343.48;137350;1276;22067;-86
2023/08/21 00:55:46;;;;;;;23.00;19.40;;;;;;;18.81;100.00;99342.63;137344;1276;22068;-85
2023/08/21 00:58:49;;;;;;;21.80;19.90;;;;;;;18.76;100.00;99339.52;137361;1276;22072;-86
2023/08/21 01:01:51;;;;;;;21.40;19.50;;;;;;;18.74;100.00;99339.36;137350;1276;22097;-86
2023/08/21 01:04:54;;;;;;;27.10;21.50;;;;;;;18.73;100.00;99340.44;137350;1276;22053;-87
2023/08/21 01:07:57;;;;;;;21.50;19.60;;;;;;;18.70;100.00;99340.13;137341;1266;22527;-86
2023/08/21 01:10:59;;;;;;;25.20;20.50;;;;;;;18.68;100.00;99342.97;137383;1276;22100;-87
2023/08/21 01:14:02;;;;;;;32.70;27.70;;;;;;;18.66;100.00;99342.30;137244;1276;22077;-88
2023/08/21 01:17:05;;;;;;;26.80;24.40;;;;;;;19.27;100.00;99339.50;137314;1270;22124;-86
2023/08/21 01:20:08;;;;;;;26.90;24.10;;;;;;;20.52;100.00;99342.28;137355;1276;22059;-86
2023/08/21 01:23:11;;;;;;;22.60;20.20;;;;;;;21.32;100.00;99340.41;137352;1276;22083;-84
2023/08/21 01:26:13;;;;;;;52.10;41.00;;;;;;;21.67;100.00;99339.22;137351;1273;22094;-84
2023/08/21 01:29:16;;;;;;;44.80;37.10;;;;;;;21.77;100.00;99337.23;137328;1276;22151;-87
2023/08/21 01:32:18;;;;;;;35.80;32.00;;;;;;;21.80;100.00;99335.17;137339;1276;22131;-83
2023/08/21 01:35:21;;;;;;;26.60;23.70;;;;;;;21.98;100.00;99337.04;137345;1276;22053;-84
2023/08/21 01:38:23;;;;;;;27.60;24.40;;;;;;;22.15;100.00;99333.75;137315;1276;22336;-84
2023/08/21 01:41:26;;;;;;;23.10;20.90;;;;;;;22.28;100.00;99327.02;137350;1266;22527;-85
2023/08/21 01:44:28;;;;;;;23.90;20.40;;;;;;;22.39;100.00;99330.08;137314;1276;22070;-84
2023/08/21 01:47:31;;;;;;;19.50;17.50;;;;;;;22.40;100.00;99332.35;137356;1276;22151;-86
2023/08/21 01:50:33;;;;;;;17.90;16.30;;;;;;;21.85;100.00;99335.05;137334;1276;22522;-87
2023/08/21 01:53:36;;;;;;;18.80;17.10;;;;;;;21.08;100.00;99332.80;137333;1276;22100;-86
2023/08/21 01:56:39;;;;;;;18.60;16.80;;;;;;;20.46;100.00;99336.95;137346;1276;22194;-86
2023/08/21 01:59:41;;;;;;;19.00;17.10;;;;;;;20.06;100.00;99338.94;137333;1276;22078;-85
2023/08/21 02:02:44;;;;;;;20.00;18.10;;;;;;;19.77;100.00;99337.31;137334;1276;22215;-86
2023/08/21 02:05:48;;;;;;;29.80;19.00;;;;;;;19.55;100.00;99334.50;137177;1276;22043;-85
2023/08/21 02:08:50;;;;;;;19.70;18.00;;;;;;;19.34;100.00;99329.88;137364;1276;22614;-86
2023/08/21 02:11:53;;;;;;;19.20;17.20;;;;;;;19.15;100.00;99328.95;137333;1276;22086;-87
2023/08/21 02:14:55;;;;;;;20.20;18.20;;;;;;;19.02;100.00;99327.69;137357;1276;22153;-86
2023/08/21 02:17:58;;;;;;;375.70;46.00;;;;;;;18.93;100.00;99323.94;137375;1276;22084;-87
2023/08/21 02:21:01;;;;;;;30.90;19.60;;;;;;;18.84;100.00;99318.96;137337;1276;22083;-87
2023/08/21 02:24:04;;;;;;;18.70;16.80;;;;;;;18.74;100.00;99321.73;137358;1276;22217;-86
2023/08/21 02:27:07;;;;;;;26.00;19.50;;;;;;;18.66;100.00;99319.73;137363;1276;22068;-83
2023/08/21 02:30:09;;;;;;;18.70;17.00;;;;;;;18.57;100.00;99319.63;137394;1276;22043;-86
2023/08/21 02:33:12;;;;;;;19.70;17.80;;;;;;;18.48;100.00;99317.28;137360;1276;22211;-86
2023/08/21 02:36:17;;;;;;;71.00;23.30;;;;;;;18.37;100.00;99318.48;137362;1276;22144;-86
2023/08/21 02:39:20;;;;;;;386.90;293.80;;;;;;;18.28;100.00;99315.06;137362;1276;22144;-85
2023/08/21 02:42:22;;;;;;;54.00;48.20;;;;;;;18.19;100.00;99313.20;137362;1276;22217;-87
2023/08/21 02:45:25;;;;;;;29.30;26.20;;;;;;;18.14;100.00;99312.20;136957;1276;22612;-87
2023/08/21 02:48:28;;;;;;;52.00;23.10;;;;;;;18.10;100.00;99311.71;137344;1276;22066;-88
2023/08/21 02:51:30;;;;;;;23.20;20.70;;;;;;;18.08;100.00;99308.03;137328;1276;22058;-86
2023/08/21 02:54:33;;;;;;;21.80;19.90;;;;;;;18.06;100.00;99309.30;137368;1276;22089;-85
2023/08/21 02:57:36;;;;;;;20.90;19.00;;;;;;;18.00;100.00;99309.54;137366;1276;22592;-86
2023/08/21 03:00:38;;;;;;;21.90;20.00;;;;;;;17.98;100.00;99307.63;137349;1276;22185;-86
2023/08/21 03:03:44;;;;;;;22.10;19.80;;;;;;;17.97;100.00;99304.11;137226;1276;22095;-87
2023/08/21 03:06:47;;;;;;;21.20;19.00;;;;;;;17.95;100.00;99305.89;137315;1276;22051;-88
2023/08/21 03:09:49;;;;;;;131.50;27.20;;;;;;;17.89;100.00;99306.31;137304;1276;22133;-85
2023/08/21 03:12:52;;;;;;;28.90;21.30;;;;;;;17.83;100.00;99312.18;137296;1276;22136;-87
2023/08/21 03:15:54;;;;;;;22.00;19.90;;;;;;;17.84;100.00;99317.45;137326;1276;22139;-87
2023/08/21 03:18:57;;;;;;;30.30;20.90;;;;;;;17.92;100.00;99322.65;137287;1276;22175;-85
2023/08/21 03:21:59;;;;;;;50.70;23.10;;;;;;;18.28;100.00;99323.34;137297;1276;22199;-83
2023/08/21 03:25:02;;;;;;;34.20;22.50;;;;;;;18.90;100.00;99322.04;137307;1276;22132;-85
2023/08/21 03:28:05;;;;;;;22.20;19.70;;;;;;;19.75;100.00;99320.39;137305;1276;22089;-84
2023/08/21 03:31:08;;;;;;;19.90;18.10;;;;;;;20.26;100.00;99321.06;137299;1276;22132;-85
2023/08/21 03:34:10;;;;;;;19.00;17.20;;;;;;;20.33;100.00;99321.83;137310;1276;22109;-85
2023/08/21 03:37:13;;;;;;;42.60;19.30;;;;;;;19.85;100.00;99321.80;137297;1276;22128;-87
2023/08/21 03:40:19;;;;;;;20.30;17.90;;;;;;;19.40;100.00;99325.55;137195;1276;22144;-86
2023/08/21 03:43:22;;;;;;;18.00;16.20;;;;;;;19.11;100.00;99318.58;137104;1264;22120;-85
2023/08/21 03:46:27;;;;;;;17.80;16.10;;;;;;;18.82;100.00;99311.40;137307;1272;22073;-86
2023/08/21 03:49:30;;;;;;;28.30;22.50;;;;;;;18.62;100.00;99313.61;137336;1276;22224;-86
2023/08/21 03:52:32;;;;;;;25.80;18.40;;;;;;;18.49;100.00;99317.98;137219;1262;22187;-85
2023/08/21 03:55:35;;;;;;;19.50;17.40;;;;;;;18.39;100.00;99321.45;137306;1276;22251;-85
2023/08/21 03:58:38;;;;;;;20.40;18.30;;;;;;;18.32;100.00;99320.48;137312;1276;22139;-85
2023/08/21 04:01:40;;;;;;;19.80;17.90;;;;;;;18.28;100.00;99316.83;137271;1276;22129;-86
2023/08/21 04:04:43;;;;;;;19.10;17.40;;;;;;;18.23;100.00;99318.11;137301;1276;22268;-85
2023/08/21 04:07:45;;;;;;;20.10;18.00;;;;;;;18.16;100.00;99321.16;137308;1276;22110;-85
2023/08/21 04:10:48;;;;;;;37.50;20.20;;;;;;;18.14;100.00;99322.77;137271;1276;22130;-85
2023/08/21 04:13:51;;;;;;;25.10;19.50;;;;;;;18.20;100.00;99332.58;137346;1276;22166;-85
2023/08/21 04:16:54;;;;;;;21.10;19.10;;;;;;;18.27;100.00;99327.95;137274;1276;22701;-85
2023/08/21 04:19:58;;;;;;;20.00;18.10;;;;;;;18.27;100.00;99322.83;137288;1270;22249;-85
2023/08/21 04:23:01;;;;;;;21.70;19.40;;;;;;;18.27;100.00;99323.36;137260;1276;22235;-85
2023/08/21 04:26:14;;;;;;;20.90;18.70;;;;;;;18.32;100.00;99318.02;137147;1276;22134;-86
2023/08/21 04:29:17;;;;;;;20.80;18.60;;;;;;;18.37;100.00;99315.31;137320;1270;22174;-85
2023/08/21 04:32:21;;;;;;;19.10;17.40;;;;;;;18.41;100.00;99320.90;137288;1276;22211;-85
2023/08/21 04:35:26;;;;;;;20.10;17.40;;;;;;;18.45;100.00;99318.55;137322;1264;22129;-85
2023/08/21 04:38:29;;;;;;;24.80;22.00;;;;;;;18.52;100.00;99314.07;137225;1276;22607;-85
2023/08/21 04:41:31;;;;;;;20.80;18.80;;;;;;;18.65;100.00;99302.81;137346;1276;22606;-86
2023/08/21 04:44:35;;;;;;;41.70;19.10;;;;;;;18.83;100.00;99295.52;137328;1276;22528;-85
2023/08/21 04:47:38;;;;;;;73.10;21.40;;;;;;;19.03;100.00;99292.58;137216;1276;22808;-87
2023/08/21 04:50:41;;;;;;;22.70;17.60;;;;;;;19.22;100.00;99297.09;137311;1276;22099;-85
2023/08/21 04:53:47;;;;;;;30.70;18.70;;;;;;;19.38;100.00;99302.81;137298;1276;22550;-86
2023/08/21 04:56:50;;;;;;;20.50;17.80;;;;;;;19.56;100.00;99307.66;137238;1276;22266;-83
2023/08/21 04:59:52;;;;;;;19.60;17.00;;;;;;;19.75;100.00;99310.70;137195;1276;22352;-85
2023/08/21 05:02:55;;;;;;;22.40;17.00;;;;;;;19.95;100.00;99313.16;137257;1273;22098;-86
2023/08/21 05:05:59;;;;;;;106.20;22.30;;;;;;;20.15;100.00;99319.51;137245;1276;22270;-86
2023/08/21 05:09:02;;;;;;;22.60;17.00;;;;;;;20.29;100.00;99322.59;137167;1276;22122;-86
2023/08/21 05:12:05;;;;;;;159.50;28.60;;;;;;;20.58;100.00;99327.69;137127;1277;22685;-84
2023/08/21 05:15:08;;;;;;;110.30;22.60;;;;;;;20.87;100.00;99324.42;136798;1277;22584;-86
2023/08/21 05:18:11;;;;;;;17.40;15.10;;;;;;;21.15;100.00;99319.73;137150;1272;22194;-86
2023/08/21 05:21:13;;;;;;;18.20;16.40;;;;;;;21.49;100.00;99312.73;137174;1277;22133;-87
2023/08/21 05:24:16;;;;;;;103.80;80.00;;;;;;;21.82;100.00;99305.36;137222;1277;22196;-86
2023/08/21 05:27:19;;;;;;;24.70;21.40;;;;;;;22.13;100.00;99299.05;137421;1276;22582;-86
2023/08/21 05:30:22;;;;;;;20.40;17.40;;;;;;;22.40;100.00;99296.86;137398;1275;22539;-86
2023/08/21 05:33:26;;;;;;;18.00;16.00;;;;;;;22.73;100.00;99302.83;137400;1276;22126;-87
2023/08/21 05:36:30;;;;;;;16.60;14.90;;;;;;;22.98;100.00;99312.57;137344;1273;22030;-85
2023/08/21 05:39:36;;;;;;;31.50;16.20;;;;;;;23.11;100.00;99324.61;137344;1276;22238;-87
2023/08/21 05:42:39;;;;;;;29.10;18.80;;;;;;;23.24;100.00;99330.04;137360;1276;22184;-85
2023/08/21 05:45:42;;;;;;;48.30;21.80;;;;;;;23.39;100.00;99336.14;137391;1276;22248;-86
2023/08/21 05:48:49;;;;;;;26.90;16.80;;;;;;;23.55;100.00;99337.98;137402;1276;22126;-86
2023/08/21 05:51:51;;;;;;;24.00;19.50;;;;;;;23.66;100.00;99332.11;137455;1275;22116;-84
2023/08/21 05:54:54;;;;;;;19.70;17.10;;;;;;;23.77;100.00;99339.19;137347;1276;22194;-83
2023/08/21 05:57:57;;;;;;;24.00;19.00;;;;;;;23.89;100.00;99347.51;137481;1276;22123;-84
2023/08/21 06:01:01;;;;;;;27.30;20.10;;;;;;;23.94;100.00;99356.02;137499;1276;22077;-87
2023/08/21 06:07:08;;;;;;;34.60;22.80;;;;;;;23.87;100.00;99364.79;133016;1305;544998;-82
2023/08/21 06:10:12;;;;;;;24.80;22.10;;;;;;;23.74;100.00;99371.29;136280;1288;22675;-84
2023/08/21 06:13:17;;;;;;;;;;;;;;;23.62;100.00;99373.80;136070;1288;22554;-84
2023/08/21 06:16:20;;;;;;;27.60;23.10;;;;;;;23.51;100.00;99385.86;135963;1288;22556;-85
2023/08/21 06:19:22;;;;;;;32.50;21.80;;;;;;;23.44;100.00;99404.73;136040;1286;221305;-85
2023/08/21 06:22:32;;;;;;;26.90;22.50;;;;;;;23.31;100.00;99418.77;136025;1285;22480;-84
2023/08/21 06:25:36;;;;;;;25.70;23.00;;;;;;;23.14;100.00;99426.75;136126;1285;22632;-85
2023/08/21 06:28:39;;;;;;;26.10;22.00;;;;;;;22.95;100.00;99432.48;136182;1285;22546;-85
2023/08/21 06:31:42;;;;;;;22.80;20.60;;;;;;;22.78;100.00;99433.83;136010;1285;22303;-86
2023/08/21 06:34:46;;;;;;;21.90;19.80;;;;;;;22.60;100.00;99438.92;136143;1285;22548;-82
2023/08/21 06:37:49;;;;;;;22.60;20.30;;;;;;;22.50;100.00;99438.45;136463;1285;22112;-85
2023/08/21 06:40:51;;;;;;;22.20;20.00;;;;;;;22.41;100.00;99453.61;136045;1285;22411;-84
2023/08/21 06:43:54;;;;;;;21.30;19.40;;;;;;;22.27;100.00;99456.64;136022;1285;22277;-85
2023/08/21 06:46:56;;;;;;;26.60;21.00;;;;;;;22.16;100.00;99464.52;136449;1285;22171;-86
2023/08/21 06:50:00;;;;;;;24.00;21.80;;;;;;;22.02;100.00;99461.50;136213;1285;22252;-84
2023/08/21 06:53:02;;;;;;;25.50;22.10;;;;;;;21.87;100.00;99463.98;136405;1285;23064;-84
2023/08/21 06:56:05;;;;;;;23.40;21.10;;;;;;;21.77;100.00;99467.06;136642;1279;22551;-85
2023/08/21 06:59:08;;;;;;;24.80;22.30;;;;;;;21.70;100.00;99461.00;136839;1279;22391;-85
2023/08/21 07:02:11;;;;;;;27.20;22.80;;;;;;;21.63;100.00;99463.45;136521;1279;22399;-84
2023/08/21 07:05:16;;;;;;;24.10;21.70;;;;;;;21.61;100.00;99471.64;136674;1256;22567;-85
2023/08/21 07:08:19;;;;;;;24.60;22.30;;;;;;;21.60;100.00;99486.55;137102;1278;22213;-82
2023/08/21 07:11:22;;;;;;;26.80;22.30;;;;;;;21.58;100.00;99489.25;136533;1278;22550;-85
2023/08/21 07:14:24;;;;;;;24.00;21.50;;;;;;;21.62;100.00;99493.77;136561;1278;22299;-83
2023/08/21 07:17:27;;;;;;;25.50;22.90;;;;;;;21.66;100.00;99489.80;137044;1278;22287;-85
2023/08/21 07:20:29;;;;;;;24.80;22.10;;;;;;;21.68;100.00;99491.02;137023;1278;22296;-84
2023/08/21 07:23:32;;;;;;;25.50;22.10;;;;;;;21.77;100.00;99490.79;136750;1278;22247;-86
2023/08/21 07:26:35;;;;;;;26.30;20.90;;;;;;;21.89;100.00;99493.51;136406;1278;22492;-85
2023/08/21 07:29:38;;;;;;;29.30;22.60;;;;;;;22.01;100.00;99491.66;136858;1278;22667;-88
2023/08/21 07:32:40;;;;;;;25.20;21.10;;;;;;;22.13;100.00;99486.58;136857;1278;22228;-84
2023/08/21 07:35:44;;;;;;;22.40;20.30;;;;;;;22.33;100.00;99490.52;136769;1278;22676;-85
2023/08/21 07:38:46;;;;;;;22.10;18.70;;;;;;;22.54;100.00;99495.48;136919;1278;22406;-84
2023/08/21 07:41:49;;;;;;;20.70;18.70;;;;;;;22.75;100.00;99495.12;136907;1278;22701;-84
2023/08/21 07:44:52;;;;;;;20.40;18.30;;;;;;;22.94;100.00;99504.02;137064;1278;22232;-83
2023/08/21 07:47:55;;;;;;;24.30;18.30;;;;;;;23.03;100.00;99499.33;137050;1278;22213;-83
2023/08/21 07:50:57;;;;;;;27.90;18.10;;;;;;;23.05;100.00;99505.48;137042;1278;22697;-82
2023/08/21 07:54:00;;;;;;;20.60;16.80;;;;;;;23.03;100.00;99502.16;137024;1278;22792;-85
2023/08/21 07:57:03;;;;;;;18.10;16.30;;;;;;;23.09;100.00;99501.46;137010;1278;22283;-83
2023/08/21 08:00:08;;;;;;;18.50;16.70;;;;;;;23.13;100.00;99498.86;136944;1278;22985;-81
2023/08/21 08:03:11;;;;;;;18.00;16.30;;;;;;;23.13;100.00;99493.89;136624;1272;22552;-83
2023/08/21 08:06:14;;;;;;;19.10;17.20;;;;;;;23.12;100.00;99485.20;136982;1278;22214;-82
2023/08/21 08:09:17;;;;;;;17.40;15.70;;;;;;;23.24;100.00;99488.41;137319;1274;22385;-82
2023/08/21 08:12:19;;;;;;;16.70;15.30;;;;;;;23.38;100.00;99488.71;137362;1274;22363;-83
2023/08/21 08:15:22;;;;;;;17.40;15.80;;;;;;;23.43;100.00;99484.34;137294;1274;22333;-84
2023/08/21 08:18:25;;;;;;;16.60;15.00;;;;;;;23.44;100.00;99483.95;137345;1274;22246;-83
2023/08/21 08:21:27;;;;;;;15.70;14.30;;;;;;;23.43;100.00;99486.11;137377;1274;22493;-82
2023/08/21 08:24:30;;;;;;;17.50;15.90;;;;;;;23.50;100.00;99488.74;137392;1274;22254;-82
2023/08/21 08:27:33;;;;;;;16.00;14.60;;;;;;;23.56;100.00;99493.56;137356;1274;23454;-82
2023/08/21 08:30:35;;;;;;;16.60;14.90;;;;;;;23.60;100.00;99492.03;137363;1274;22861;-82
2023/08/21 08:33:38;;;;;;;15.20;13.90;;;;;;;23.71;100.00;99493.81;137353;1274;22625;-84
2023/08/21 08:36:41;;;;;;;16.80;13.70;;;;;;;23.92;100.00;99492.44;137324;1274;22359;-84
2023/08/21 08:39:44;;;;;;;17.30;13.50;;;;;;;24.15;100.00;99487.41;137278;1274;22299;-83
2023/08/21 08:42:46;;;;;;;14.30;13.00;;;;;;;24.43;100.00;99485.46;137328;1274;23238;-82
2023/08/21 08:45:52;;;;;;;14.60;13.20;;;;;;;24.64;100.00;99481.16;137303;1274;22269;-82
2023/08/21 08:48:54;;;;;;;31.70;14.10;;;;;;;24.71;100.00;99480.56;137315;1274;22244;-82
2023/08/21 08:51:56;;;;;;;16.10;12.80;;;;;;;24.79;100.00;99475.66;137296;1274;23025;-82
2023/08/21 08:54:59;;;;;;;13.40;12.10;;;;;;;24.84;100.00;99476.70;137334;1274;22843;-83
2023/08/21 08:58:02;;;;;;;14.60;12.20;;;;;;;25.00;100.00;99473.82;137360;1274;22220;-82
2023/08/21 09:01:04;;;;;;;13.20;11.60;;;;;;;25.13;100.00;99472.29;137355;1274;22667;-82
2023/08/21 09:04:07;;;;;;;12.30;11.20;;;;;;;25.18;100.00;99472.31;137295;1256;22399;-82
2023/08/21 09:07:09;;;;;;;13.70;11.90;;;;;;;25.19;100.00;99473.33;137387;1274;22736;-81
2023/08/21 09:10:12;;;;;;;13.10;11.80;;;;;;;25.16;100.00;99469.73;137266;1274;22633;-81
2023/08/21 09:13:15;;;;;;;13.10;11.80;;;;;;;25.20;100.00;99464.73;137299;1274;22239;-81
2023/08/21 09:16:18;;;;;;;11.80;10.70;;;;;;;25.25;100.00;99461.16;137372;1274;22348;-83
2023/08/21 09:19:20;;;;;;;12.30;11.10;;;;;;;25.23;100.00;99453.61;137382;1274;22797;-83
2023/08/21 09:22:23;;;;;;;13.20;11.80;;;;;;;25.24;100.00;99451.05;137378;1274;22332;-83
2023/08/21 09:25:25;;;;;;;148.50;21.00;;;;;;;25.27;100.00;99444.33;137368;1274;22234;-82
2023/08/21 09:28:28;;;;;;;13.10;11.80;;;;;;;25.36;100.00;99446.48;137328;1274;22651;-83
2023/08/21 09:31:31;;;;;;;12.10;10.80;;;;;;;25.48;100.00;99446.75;137401;1270;22768;-83
2023/08/21 09:34:36;;;;;;;13.10;11.30;;;;;;;25.57;100.00;99436.23;137435;1274;22268;-83
2023/08/21 09:37:38;;;;;;;13.20;11.70;;;;;;;25.70;100.00;99428.22;137360;1274;22808;-84
2023/08/21 09:40:41;;;;;;;12.80;11.50;;;;;;;25.82;100.00;99423.30;137260;1274;22321;-83
2023/08/21 09:43:44;;;;;;;12.40;10.30;;;;;;;26.04;100.00;99415.80;137430;1274;22268;-80
2023/08/21 09:46:46;;;;;;;12.90;11.60;;;;;;;26.34;100.00;99415.80;137232;1274;22371;-82
2023/08/21 09:49:49;;;;;;;15.20;11.60;;;;;;;26.67;100.00;99408.65;137387;1274;22275;-81
2023/08/21 09:52:51;;;;;;;16.10;10.90;;;;;;;27.01;100.00;99408.91;137339;1274;22219;-82
2023/08/21 09:55:54;;;;;;;16.20;11.50;;;;;;;27.36;100.00;99411.91;137337;1274;22357;-81
2023/08/21 09:58:56;;;;;;;21.00;16.30;;;;;;;27.65;100.00;99413.73;137329;1268;22204;-82
2023/08/21 10:02:01;;;;;;;30.40;11.40;;;;;;;27.81;100.00;99414.59;137343;1274;22796;-81
2023/08/21 10:05:04;;;;;;;15.80;11.20;;;;;;;27.97;100.00;99412.40;137340;1274;22218;-82
2023/08/21 10:08:07;;;;;;;10.40;9.50;;;;;;;28.09;100.00;99407.48;137365;1274;22237;-81
2023/08/21 10:11:09;;;;;;;10.60;9.60;;;;;;;28.11;100.00;99409.52;137369;1274;22687;-82
2023/08/21 10:14:12;;;;;;;11.50;10.30;;;;;;;28.26;100.00;99415.04;137367;1274;22303;-81
2023/08/21 10:17:15;;;;;;;10.60;9.60;;;;;;;28.30;100.00;99413.61;137366;1274;22233;-81
2023/08/21 10:20:18;;;;;;;22.30;12.30;;;;;;;28.22;100.00;99409.17;137426;1274;22264;-83
2023/08/21 10:23:20;;;;;;;13.30;10.80;;;;;;;28.21;100.00;99408.12;137355;1271;22315;-81
2023/08/21 10:26:23;;;;;;;14.10;12.50;;;;;;;28.33;100.00;99407.50;137409;1274;22236;-82
2023/08/21 10:29:25;;;;;;;15.00;11.40;;;;;;;28.30;100.00;99408.07;137410;1274;22386;-83
2023/08/21 10:32:28;;;;;;;29.70;12.80;;;;;;;28.40;100.00;99403.77;137418;1274;22849;-82
2023/08/21 10:35:30;;;;;;;27.70;12.80;;;;;;;28.61;100.00;99405.70;137355;1274;22179;-83
2023/08/21 10:38:33;;;;;;;17.00;10.70;;;;;;;28.69;100.00;99406.00;137373;1274;22844;-83
2023/08/21 10:41:35;;;;;;;14.10;10.60;;;;;;;28.93;100.00;99406.19;137394;1274;22207;-83
2023/08/21 10:44:38;;;;;;;9.90;8.90;;;;;;;29.11;100.00;99404.98;137402;1270;22266;-81
2023/08/21 10:47:40;;;;;;;8.80;8.00;;;;;;;29.53;100.00;99397.67;137409;1274;22285;-84
2023/08/21 10:50:43;;;;;;;8.50;7.70;;;;;;;29.55;100.00;99397.02;137382;1274;22630;-84
2023/08/21 10:53:45;;;;;;;10.20;9.30;;;;;;;29.34;100.00;99399.09;137395;1274;22192;-82
2023/08/21 10:56:48;;;;;;;9.00;8.10;;;;;;;29.16;100.00;99403.45;137420;1274;22225;-84
2023/08/21 10:59:50;;;;;;;10.90;9.80;;;;;;;28.89;100.00;99410.71;137378;1274;22345;-81
2023/08/21 11:02:53;;;;;;;41.70;11.70;;;;;;;28.70;100.00;99402.02;137452;1274;22263;-82
2023/08/21 11:05:56;;;;;;;10.30;9.50;;;;;;;28.69;100.00;99401.34;137230;1274;22208;-84
2023/08/21 11:08:58;;;;;;;10.80;8.50;;;;;;;28.72;100.00;99409.80;137393;1274;22341;-82
2023/08/21 11:12:01;;;;;;;8.90;8.10;;;;;;;28.38;100.00;99408.48;137315;1262;22888;-83
2023/08/21 11:15:03;;;;;;;21.20;10.10;;;;;;;28.11;100.00;99405.95;137353;1274;22206;-81
2023/08/21 11:18:06;;;;;;;9.40;8.40;;;;;;;27.92;100.00;99407.09;137297;1274;22223;-84
2023/08/21 11:21:09;;;;;;;9.40;8.60;;;;;;;27.73;100.00;99406.95;137412;1274;22655;-85
2023/08/21 11:24:12;;;;;;;10.70;9.70;;;;;;;27.56;100.00;99406.46;137375;1270;22306;-81
2023/08/21 11:27:14;;;;;;;11.30;9.70;;;;;;;27.50;100.00;99406.61;137380;1274;22342;-82
2023/08/21 11:30:17;;;;;;;36.00;11.50;;;;;;;27.52;100.00;99408.98;137365;1274;22003;-84
2023/08/21 11:33:19;;;;;;;10.90;9.50;;;;;;;27.49;100.00;99405.05;137394;1274;22479;-83
2023/08/21 11:36:22;;;;;;;9.10;8.30;;;;;;;27.38;100.00;99409.67;137378;1274;22205;-82
2023/08/21 11:39:29;;;;;;;9.90;8.70;;;;;;;27.32;100.00;99413.19;137430;1271;22432;-83
2023/08/21 11:42:32;;;;;;;9.00;8.10;;;;;;;27.16;100.00;99414.27;137381;1274;22261;-84
2023/08/21 11:45:38;;;;;;;8.40;7.70;;;;;;;27.09;100.00;99405.71;137390;1274;22288;-83
2023/08/21 11:48:40;;;;;;;7.90;7.30;;;;;;;27.13;100.00;99411.95;137352;1274;22895;-83
2023/08/21 11:51:43;;;;;;;8.20;7.40;;;;;;;27.24;100.00;99412.67;137365;1274;22314;-82
2023/08/21 11:54:46;;;;;;;8.30;7.50;;;;;;;27.47;100.00;99414.25;137379;1274;22206;-84
2023/08/21 11:57:49;;;;;;;8.20;7.10;;;;;;;27.75;100.00;99414.38;137329;1274;22210;-82
2023/08/21 12:00:51;;;;;;;8.60;7.30;;;;;;;27.84;100.00;99415.52;137340;1262;22324;-84
2023/08/21 12:03:55;;;;;;;7.80;7.20;;;;;;;27.92;100.00;99417.08;137356;1274;22656;-82
2023/08/21 12:06:57;;;;;;;8.10;7.40;;;;;;;27.88;100.00;99415.50;137342;1274;22365;-83
2023/08/21 12:10:00;;;;;;;7.50;7.00;;;;;;;28.02;100.00;99414.09;137318;1274;22275;-84
2023/08/21 12:13:03;;;;;;;7.70;6.80;;;;;;;28.26;100.00;99416.67;137302;1274;22199;-84
2023/08/21 12:16:05;;;;;;;9.00;6.60;;;;;;;28.45;100.00;99422.29;137291;1274;22335;-82
2023/08/21 12:19:09;;;;;;;6.90;6.30;;;;;;;28.51;100.00;99420.70;137267;1272;22696;-82
2023/08/21 12:22:12;;;;;;;6.20;5.60;;;;;;;28.57;100.00;99418.47;137306;1273;22294;-82
2023/08/21 12:25:16;;;;;;;14.20;6.40;;;;;;;28.94;100.00;99409.85;137298;1274;22234;-83
2023/08/21 12:28:18;;;;;;;6.60;4.90;;;;;;;29.22;100.00;99407.09;137254;1274;22487;-82
2023/08/21 12:31:21;;;;;;;5.40;4.90;;;;;;;29.41;100.00;99404.06;137324;1273;22218;-82
2023/08/21 12:34:23;;;;;;;4.50;4.10;;;;;;;29.52;100.00;99406.33;137318;1274;22707;-83
2023/08/21 12:37:26;;;;;;;4.30;3.80;;;;;;;29.52;78.45;99406.33;137347;1274;22192;-83
2023/08/21 12:40:28;;;;;;;4.10;3.80;;;;;;;29.39;63.91;99405.05;137253;1274;22307;-82
2023/08/21 12:43:31;;;;;;;5.40;4.30;;;;;;;29.29;64.35;99405.09;137297;1274;22261;-83
2023/08/21 12:46:34;;;;;;;7.50;4.20;;;;;;;29.26;64.37;99407.92;137405;1274;22214;-83
2023/08/21 12:49:37;;;;;;;5.20;4.40;;;;;;;29.13;64.59;99410.08;137385;1274;22208;-83
2023/08/21 12:52:41;;;;;;;4.70;4.30;;;;;;;29.11;64.15;99408.42;137184;1274;22323;-80
2023/08/21 12:55:43;;;;;;;5.50;5.10;;;;;;;28.90;64.85;99407.41;137432;1274;22305;-84
2023/08/21 12:58:48;;;;;;;5.40;5.00;;;;;;;28.78;66.00;99400.33;137330;1267;22222;-82
2023/08/21 13:01:51;;;;;;;26.80;6.30;;;;;;;28.72;66.04;99397.06;137349;1274;22395;-83
2023/08/21 13:04:53;;;;;;;5.40;5.00;;;;;;;28.85;66.16;99395.33;137430;1274;22335;-82
2023/08/21 13:07:56;;;;;;;6.70;5.60;;;;;;;28.81;65.07;99393.75;137066;1274;22211;-83
2023/08/21 13:10:58;;;;;;;75.30;9.70;;;;;;;28.69;65.50;99389.17;137526;1274;22098;-82
2023/08/21 13:14:03;;;;;;;5.30;4.90;;;;;;;28.82;64.03;99385.96;137543;1274;22115;-83
2023/08/21 13:17:06;;;;;;;8.30;5.30;;;;;;;28.88;63.69;99379.74;137553;1274;22147;-82
2023/08/21 13:20:08;;;;;;;5.70;5.20;;;;;;;28.90;64.03;99378.20;137504;1274;22205;-82
2023/08/21 13:23:11;;;;;;;;;;;;;;;28.88;64.63;99375.46;137208;1276;22361;-83
2023/08/21 13:26:14;;;;;;;6.00;5.40;;;;;;;28.83;64.71;99380.01;136935;1278;22134;-83
2023/08/21 13:29:16;;;;;;;11.00;6.40;;;;;;;28.67;64.60;99371.75;136939;1269;22095;-81
2023/08/21 13:32:19;;;;;;;9.10;5.90;;;;;;;28.75;64.68;99364.70;136930;1280;21940;-83
2023/08/21 13:35:22;;;;;;;6.60;6.10;;;;;;;28.96;64.90;99360.52;136876;1280;22102;-83
2023/08/21 13:38:25;;;;;;;6.00;5.50;;;;;;;29.05;63.15;99358.20;136886;1280;22121;-82
2023/08/21 13:41:27;;;;;;;5.90;5.40;;;;;;;28.96;62.02;99359.05;136868;1281;22148;-83
2023/08/21 13:44:30;;;;;;;5.60;5.20;;;;;;;28.97;62.58;99355.98;136854;1281;22126;-83
2023/08/21 13:47:32;;;;;;;9.60;5.40;;;;;;;29.08;61.42;99364.33;136860;1280;22029;-83